createdAt,value
2019-03-23T00:00:21.019Z,65.00
2019-03-23T00:02:50.639Z,66.90
2019-03-23T00:05:20.938Z,65.10
2019-03-23T00:07:53.453Z,63.50
2019-03-23T00:10:25.107Z,62.80
2019-03-23T00:12:55.680Z,66.60
2019-03-23T00:15:28.426Z,70.20
2019-03-23T00:17:59.909Z,71.80
2019-03-23T00:20:31.503Z,74.10
2019-03-23T00:23:03.848Z,75.90
2019-03-23T00:25:37.335Z,77.50
2019-03-23T00:28:08.430Z,78.40
2019-03-23T00:30:40.192Z,78.80
2019-03-23T00:33:10.733Z,79.30
2019-03-23T00:35:41.427Z,79.60
2019-03-23T00:38:11.831Z,80.40
2019-03-23T00:40:42.303Z,81.30
2019-03-23T00:43:12.711Z,80.10
2019-03-23T00:45:43.171Z,80.50
2019-03-23T00:48:13.575Z,80.90
2019-03-23T00:50:44.048Z,82.00
2019-03-23T00:53:14.447Z,81.40
2019-03-23T00:55:45.042Z,78.60
2019-03-23T00:58:15.444Z,74.60
2019-03-23T01:00:45.900Z,70.50
2019-03-23T01:03:17.884Z,69.00
2019-03-23T01:05:48.370Z,72.30
2019-03-23T01:08:18.766Z,74.90
2019-03-23T01:10:49.226Z,76.90
2019-03-23T01:13:19.631Z,79.30
2019-03-23T01:15:50.091Z,80.90
2019-03-23T01:18:20.752Z,82.30
2019-03-23T01:20:51.227Z,82.80
2019-03-23T01:23:21.686Z,83.70
2019-03-23T01:25:52.082Z,80.80
2019-03-23T01:28:22.438Z,81.50
2019-03-23T01:30:55.588Z,82.90
2019-03-23T01:33:25.996Z,83.50
2019-03-23T01:35:56.407Z,82.30
2019-03-23T01:38:26.763Z,81.30
2019-03-23T01:40:57.273Z,80.30
2019-03-23T01:43:27.670Z,78.80
2019-03-23T01:45:58.105Z,77.50
2019-03-23T01:48:28.591Z,76.50
2019-03-23T01:50:59.088Z,75.10
2019-03-23T01:53:29.562Z,76.80
2019-03-23T01:56:00.018Z,75.20
2019-03-23T01:58:30.488Z,74.90
2019-03-23T02:01:01.054Z,76.50
2019-03-23T02:03:31.667Z,74.00
2019-03-23T02:06:02.128Z,75.20
2019-03-23T02:08:32.533Z,76.60
2019-03-23T02:11:02.987Z,75.10
2019-03-23T02:13:33.387Z,79.00
2019-03-23T02:16:03.851Z,79.10
2019-03-23T02:18:34.354Z,80.20
2019-03-23T02:21:04.927Z,77.90
2019-03-23T02:23:35.323Z,76.70
2019-03-23T02:26:05.793Z,78.70
2019-03-23T02:28:36.198Z,79.90
2019-03-23T02:31:07.371Z,81.80
2019-03-23T02:33:38.464Z,82.60
2019-03-23T02:36:08.867Z,83.80
2019-03-23T02:38:39.320Z,85.10
2019-03-23T02:41:09.725Z,84.40
2019-03-23T02:43:40.190Z,82.80
2019-03-23T02:46:10.691Z,84.70
2019-03-23T02:48:41.184Z,84.60
2019-03-23T02:51:11.584Z,85.20
2019-03-23T02:53:42.068Z,84.30
2019-03-23T02:56:12.475Z,83.70
2019-03-23T02:58:42.939Z,84.60
2019-03-23T03:01:13.343Z,85.80
2019-03-23T03:03:43.815Z,86.30
2019-03-23T03:06:14.216Z,83.60
2019-03-23T03:08:44.694Z,84.90
2019-03-23T03:11:15.088Z,85.20
2019-03-23T03:13:46.596Z,86.40
2019-03-23T03:16:16.946Z,86.40
2019-03-23T03:18:47.365Z,87.00
2019-03-23T03:21:17.704Z,88.10
2019-03-23T03:23:48.349Z,87.50
2019-03-23T03:26:18.688Z,86.20
2019-03-23T03:28:49.103Z,87.60
2019-03-23T03:31:19.451Z,87.30
2019-03-23T03:33:49.878Z,88.10
2019-03-23T03:36:20.226Z,88.60
2019-03-23T03:38:50.925Z,90.20
2019-03-23T03:41:21.296Z,90.10
2019-03-23T03:43:51.673Z,89.90
2019-03-23T03:46:22.021Z,90.10
2019-03-23T03:48:52.441Z,89.10
2019-03-23T03:51:22.794Z,88.10
2019-03-23T03:53:53.218Z,89.80
2019-03-23T03:56:23.559Z,88.80
2019-03-23T03:58:53.976Z,89.30
2019-03-23T04:01:24.333Z,89.30
2019-03-23T04:03:54.745Z,87.00
2019-03-23T04:06:25.095Z,82.30
2019-03-23T04:08:55.525Z,81.90
2019-03-23T04:11:25.866Z,80.80
2019-03-23T04:13:56.271Z,83.30
2019-03-23T04:16:26.612Z,84.30
2019-03-23T04:18:57.022Z,84.10
2019-03-23T04:21:27.379Z,82.70
2019-03-23T04:23:57.794Z,86.20
2019-03-23T04:26:28.149Z,87.60
2019-03-23T04:28:58.565Z,88.30
2019-03-23T04:31:28.909Z,88.20
2019-03-23T04:33:59.518Z,89.20
2019-03-23T04:36:29.868Z,88.90
2019-03-23T04:39:00.267Z,90.00
2019-03-23T04:41:30.611Z,90.10
2019-03-23T04:44:01.024Z,90.30
2019-03-23T04:46:31.367Z,89.90
2019-03-23T04:49:01.775Z,90.50
2019-03-23T04:51:32.180Z,90.60
2019-03-23T04:54:02.572Z,90.50
2019-03-23T04:56:32.977Z,90.00
2019-03-23T04:59:04.571Z,90.20
2019-03-23T05:01:34.991Z,90.50
2019-03-23T05:04:05.405Z,90.40
2019-03-23T05:06:35.799Z,90.60
2019-03-23T05:09:08.394Z,90.60
2019-03-23T05:11:38.750Z,90.00
2019-03-23T05:14:09.175Z,89.60
2019-03-23T05:16:39.522Z,84.60
2019-03-23T05:19:09.933Z,76.90
2019-03-23T05:21:40.321Z,73.90
2019-03-23T05:24:10.830Z,72.10
2019-03-23T05:26:41.174Z,70.40
2019-03-23T05:29:11.592Z,75.50
2019-03-23T05:31:41.941Z,77.20
2019-03-23T05:34:12.347Z,73.90
2019-03-23T05:36:42.704Z,74.50
2019-03-23T05:39:13.098Z,79.50
2019-03-23T05:41:43.436Z,71.90
2019-03-23T05:44:13.851Z,69.60
2019-03-23T05:46:44.402Z,71.80
2019-03-23T05:49:14.799Z,69.70
2019-03-23T05:51:45.203Z,67.40
2019-03-23T05:54:15.603Z,75.10
2019-03-23T05:56:46.052Z,78.60
2019-03-23T05:59:16.497Z,79.40
2019-03-23T06:01:46.880Z,79.00
2019-03-23T06:04:17.296Z,81.60
2019-03-23T06:06:47.708Z,80.10
2019-03-23T06:09:18.109Z,82.70
2019-03-23T06:11:48.532Z,84.00
2019-03-23T06:14:18.953Z,83.20
2019-03-23T06:16:49.642Z,81.80
2019-03-23T06:19:20.044Z,81.90
2019-03-23T06:21:50.461Z,80.90
2019-03-23T06:24:20.862Z,76.70
2019-03-23T06:26:51.262Z,78.20
2019-03-23T06:29:21.612Z,75.00
2019-03-23T06:31:52.036Z,74.00
2019-03-23T06:34:22.401Z,72.10
2019-03-23T06:36:54.011Z,66.80
2019-03-23T06:39:24.358Z,65.10
2019-03-23T06:41:54.775Z,62.60
2019-03-23T06:44:25.126Z,61.70
2019-03-23T06:46:55.527Z,57.40
2019-03-23T06:49:25.889Z,54.30
2019-03-23T06:51:56.353Z,50.90
2019-03-23T06:54:26.765Z,49.20
2019-03-23T06:56:57.176Z,46.40
2019-03-23T06:59:27.531Z,45.40
2019-03-23T07:01:57.954Z,43.50
2019-03-23T07:04:29.413Z,43.30
2019-03-23T07:06:59.827Z,44.90
2019-03-23T07:09:30.184Z,44.60
2019-03-23T07:12:00.591Z,45.60
2019-03-23T07:14:30.939Z,45.20
2019-03-23T07:17:01.369Z,45.20
2019-03-23T07:19:31.715Z,47.10
2019-03-23T07:22:02.126Z,47.30
2019-03-23T07:24:32.490Z,45.10
2019-03-23T07:27:02.904Z,46.00
2019-03-23T07:29:33.267Z,45.20
2019-03-23T07:32:06.016Z,46.60
2019-03-23T07:34:35.664Z,48.30
2019-03-23T07:37:06.175Z,51.40
2019-03-23T07:39:36.687Z,49.70
2019-03-23T07:42:07.090Z,50.90
2019-03-23T07:44:37.442Z,49.00
2019-03-23T07:47:08.085Z,52.50
2019-03-23T07:49:38.439Z,51.50
2019-03-23T07:52:10.159Z,51.50
2019-03-23T07:54:40.513Z,53.90
2019-03-23T07:57:10.945Z,49.20
2019-03-23T07:59:41.311Z,47.00
2019-03-23T08:02:11.730Z,46.80
2019-03-23T08:04:42.093Z,46.50
2019-03-23T08:07:12.502Z,49.00
2019-03-23T08:09:42.861Z,47.80
2019-03-23T08:12:13.295Z,46.40
2019-03-23T08:14:43.647Z,47.80
2019-03-23T08:17:14.059Z,50.40
2019-03-23T08:19:44.526Z,49.20
2019-03-23T08:22:16.148Z,51.10
2019-03-23T08:24:46.512Z,49.30
2019-03-23T08:27:16.941Z,43.40
2019-03-23T08:29:47.291Z,43.80
2019-03-23T08:32:18.905Z,43.90
2019-03-23T08:34:49.247Z,44.40
2019-03-23T08:37:19.672Z,43.60
2019-03-23T08:39:50.030Z,41.40
2019-03-23T08:42:21.045Z,41.10
2019-03-23T08:44:51.400Z,41.50
2019-03-23T08:47:21.813Z,42.70
2019-03-23T08:49:52.158Z,42.20
2019-03-23T08:52:22.563Z,43.70
2019-03-23T08:54:52.984Z,41.00
2019-03-23T08:57:23.382Z,40.50
2019-03-23T08:59:53.799Z,38.20
2019-03-23T09:02:24.230Z,38.70
2019-03-23T09:04:54.628Z,38.50
2019-03-23T09:07:25.042Z,37.40
2019-03-23T09:09:59.390Z,38.00
2019-03-23T09:12:27.426Z,39.70
2019-03-23T09:14:57.784Z,39.90
2019-03-23T09:17:28.201Z,39.30
2019-03-23T09:19:58.771Z,39.40
2019-03-23T09:22:29.182Z,39.20
2019-03-23T09:24:59.539Z,39.90
2019-03-23T09:27:29.915Z,39.70
2019-03-23T09:30:00.383Z,39.70
2019-03-23T09:32:30.777Z,39.50
2019-03-23T09:35:01.341Z,40.70
2019-03-23T09:37:31.829Z,38.70
2019-03-23T09:40:10.110Z,37.30
2019-03-23T09:42:34.256Z,39.80
2019-03-23T09:45:07.191Z,40.10
2019-03-23T09:47:38.145Z,37.80
2019-03-23T09:50:10.359Z,38.80
2019-03-23T09:52:40.868Z,39.40
2019-03-23T09:55:11.421Z,39.00
2019-03-23T09:57:41.945Z,39.90
2019-03-23T10:00:13.754Z,38.20
2019-03-23T10:02:44.221Z,39.50
2019-03-23T10:05:14.567Z,37.00
2019-03-23T10:07:44.981Z,36.40
2019-03-23T10:10:21.755Z,38.20
2019-03-23T10:12:47.291Z,38.40
2019-03-23T10:15:17.809Z,36.80
2019-03-23T10:17:48.154Z,36.00
2019-03-23T10:20:18.499Z,38.00
2019-03-23T10:22:48.909Z,37.30
2019-03-23T10:25:19.248Z,36.80
2019-03-23T10:27:49.816Z,36.40
2019-03-23T10:30:20.227Z,33.20
2019-03-23T10:32:50.689Z,34.00
2019-03-23T10:35:21.023Z,36.80
2019-03-23T10:37:51.441Z,38.30
2019-03-23T10:40:31.697Z,37.20
2019-03-23T10:42:53.769Z,38.10
2019-03-23T10:45:24.197Z,36.80
2019-03-23T10:50:24.833Z,37.00
2019-03-23T10:52:56.542Z,35.70
2019-03-23T10:55:26.907Z,37.60
2019-03-23T10:57:57.319Z,37.90
2019-03-23T11:00:27.684Z,37.40
2019-03-23T11:02:58.100Z,36.30
2019-03-23T11:05:28.740Z,36.00
2019-03-23T11:07:59.288Z,35.20
2019-03-23T11:10:29.622Z,36.70
2019-03-23T11:13:00.041Z,35.90
2019-03-23T11:15:30.396Z,34.40
2019-03-23T11:18:00.809Z,34.00
2019-03-23T11:20:31.223Z,35.50
2019-03-23T11:23:01.639Z,36.70
2019-03-23T11:25:32.107Z,36.10
2019-03-23T11:28:02.516Z,35.40
2019-03-23T11:30:32.932Z,36.30
2019-03-23T11:33:03.346Z,34.50
2019-03-23T11:35:33.757Z,32.80
2019-03-23T11:38:04.223Z,33.80
2019-03-23T11:40:34.676Z,33.40
2019-03-23T11:43:05.089Z,33.60
2019-03-23T11:45:35.491Z,35.30
2019-03-23T11:48:05.891Z,35.40
2019-03-23T11:50:36.304Z,34.60
2019-03-23T11:53:06.716Z,35.00
2019-03-23T11:55:37.102Z,33.90
2019-03-23T11:58:07.510Z,35.80
2019-03-23T12:00:37.902Z,34.70
2019-03-23T12:03:08.307Z,33.10
2019-03-23T12:05:38.651Z,36.20
2019-03-23T12:08:10.247Z,33.60
2019-03-23T12:10:40.602Z,34.60
2019-03-23T12:13:11.015Z,33.10
2019-03-23T12:15:41.420Z,32.50
2019-03-23T12:18:11.772Z,32.10
2019-03-23T12:20:42.176Z,33.70
2019-03-23T12:23:12.529Z,34.10
2019-03-23T12:25:42.935Z,33.40
2019-03-23T12:28:13.293Z,34.30
2019-03-23T12:30:43.706Z,35.40
2019-03-23T12:33:14.069Z,34.70
2019-03-23T12:35:44.550Z,34.40
2019-03-23T12:38:14.890Z,34.40
2019-03-23T12:40:45.290Z,33.60
2019-03-23T12:43:15.648Z,35.10
2019-03-23T12:45:46.047Z,33.10
2019-03-23T12:48:16.391Z,32.40
2019-03-23T12:50:46.802Z,32.20
2019-03-23T12:53:17.149Z,31.50
2019-03-23T12:55:47.548Z,32.50
2019-03-23T12:58:17.911Z,31.00
2019-03-23T13:00:48.309Z,30.20
2019-03-23T13:03:18.700Z,30.00
2019-03-23T13:05:49.074Z,33.20
2019-03-23T13:08:19.427Z,32.90
2019-03-23T13:10:49.856Z,34.30
2019-03-23T13:13:20.218Z,32.90
2019-03-23T13:15:50.623Z,32.70
2019-03-23T13:18:27.064Z,32.00
2019-03-23T13:20:53.017Z,31.00
2019-03-23T13:23:23.377Z,32.20
2019-03-23T13:25:53.799Z,32.90
2019-03-23T13:28:24.158Z,33.10
2019-03-23T13:30:54.566Z,34.10
2019-03-23T13:33:24.907Z,33.30
2019-03-23T13:35:55.332Z,32.70
2019-03-23T13:38:25.678Z,32.60
2019-03-23T13:40:56.082Z,33.60
2019-03-23T13:43:26.493Z,32.60
2019-03-23T13:45:57.238Z,32.10
2019-03-23T13:48:27.592Z,32.50
2019-03-23T13:50:58.026Z,32.50
2019-03-23T13:53:28.390Z,32.80
2019-03-23T13:55:58.816Z,32.10
2019-03-23T13:58:29.155Z,30.60
2019-03-23T14:00:59.558Z,30.00
2019-03-23T14:03:30.123Z,30.10
2019-03-23T14:06:00.546Z,33.30
2019-03-23T14:08:30.902Z,31.70
2019-03-23T14:11:01.314Z,31.20
2019-03-23T14:13:31.663Z,34.00
2019-03-23T14:16:02.087Z,31.10
2019-03-23T14:18:32.444Z,32.10
2019-03-23T14:21:02.875Z,32.50
2019-03-23T14:23:33.229Z,31.80
2019-03-23T14:26:03.784Z,32.10
2019-03-23T14:28:34.132Z,30.70
2019-03-23T14:31:04.558Z,32.80
2019-03-23T14:33:34.906Z,33.60
2019-03-23T14:36:05.333Z,33.40
2019-03-23T14:38:35.680Z,32.90
2019-03-23T14:41:06.220Z,32.30
2019-03-23T14:43:36.577Z,32.80
2019-03-23T14:46:06.986Z,33.40
2019-03-23T14:48:37.337Z,32.40
2019-03-23T14:51:07.854Z,32.50
2019-03-23T14:53:38.201Z,30.40
2019-03-23T14:56:08.884Z,31.70
2019-03-23T14:58:39.238Z,31.60
2019-03-23T15:01:09.946Z,32.30
2019-03-23T15:03:40.365Z,32.20
2019-03-23T15:06:10.774Z,33.30
2019-03-23T15:08:41.192Z,32.10
2019-03-23T15:11:11.608Z,32.40
2019-03-23T15:13:42.024Z,31.20
2019-03-23T15:16:12.440Z,32.40
2019-03-23T15:18:42.922Z,31.50
2019-03-23T15:21:14.553Z,30.80
2019-03-23T15:23:44.961Z,32.60
2019-03-23T15:26:15.368Z,31.80
2019-03-23T15:28:45.780Z,32.80
2019-03-23T15:31:16.197Z,31.50
2019-03-23T15:33:46.623Z,32.50
2019-03-23T15:36:17.057Z,32.80
2019-03-23T15:38:47.453Z,32.90
2019-03-23T15:41:17.863Z,33.20
2019-03-23T15:43:48.289Z,32.90
2019-03-23T15:46:18.861Z,32.50
2019-03-23T15:48:50.230Z,33.20
2019-03-23T15:51:20.641Z,33.00
2019-03-23T15:53:51.057Z,32.50
2019-03-23T15:56:21.456Z,31.70
2019-03-23T15:58:51.860Z,33.10
2019-03-23T16:01:23.269Z,32.70
2019-03-23T16:03:53.774Z,32.60
2019-03-23T16:06:24.192Z,33.20
2019-03-23T16:08:54.589Z,33.10
2019-03-23T16:11:25.001Z,33.10
2019-03-23T16:13:55.418Z,32.50
2019-03-23T16:16:25.848Z,32.90
2019-03-23T16:18:56.254Z,33.00
2019-03-23T16:21:26.676Z,32.30
2019-03-23T16:23:57.098Z,33.90
2019-03-23T16:26:27.486Z,33.30
2019-03-23T16:28:57.931Z,33.30
2019-03-23T16:31:28.338Z,34.00
2019-03-23T16:33:58.735Z,33.90
2019-03-23T16:36:29.086Z,34.20
2019-03-23T16:38:59.508Z,34.80
2019-03-23T16:41:29.913Z,34.10
2019-03-23T16:44:00.323Z,34.20
2019-03-23T16:46:30.681Z,35.20
2019-03-23T16:49:02.205Z,36.10
2019-03-23T16:51:32.550Z,34.30
2019-03-23T16:54:03.747Z,35.00
2019-03-23T16:56:34.215Z,35.70
2019-03-23T16:59:04.641Z,35.80
2019-03-23T17:01:34.999Z,36.70
2019-03-23T17:04:05.425Z,37.40
2019-03-23T17:06:45.833Z,39.30
2019-03-23T17:09:07.841Z,40.10
2019-03-23T17:11:38.201Z,40.30
2019-03-23T17:14:08.611Z,39.50
2019-03-23T17:16:39.024Z,43.00
2019-03-23T17:19:09.443Z,41.70
2019-03-23T17:21:39.787Z,46.40
2019-03-23T17:24:10.223Z,45.50
2019-03-23T17:26:40.570Z,43.80
2019-03-23T17:29:10.991Z,45.40
2019-03-23T17:31:41.395Z,47.70
2019-03-23T17:34:11.761Z,47.50
2019-03-23T17:36:42.178Z,51.10
2019-03-23T17:39:12.538Z,49.00
2019-03-23T17:41:42.975Z,49.40
2019-03-23T17:44:13.394Z,51.50
2019-03-23T17:46:43.753Z,54.50
2019-03-23T17:49:14.173Z,56.20
2019-03-23T17:51:44.629Z,57.80
2019-03-23T17:54:15.077Z,57.30
2019-03-23T17:56:45.654Z,58.80
2019-03-23T17:59:17.066Z,59.70
2019-03-23T18:01:47.615Z,62.70
2019-03-23T18:04:18.044Z,64.30
2019-03-23T18:06:48.388Z,60.60
2019-03-23T18:09:18.816Z,60.30
2019-03-23T18:11:49.176Z,58.00
2019-03-23T18:14:20.195Z,58.90
2019-03-23T18:16:50.542Z,58.80
2019-03-23T18:19:20.978Z,62.00
2019-03-23T18:21:51.347Z,62.40
2019-03-23T18:24:21.758Z,64.10
2019-03-23T18:26:52.122Z,64.60
2019-03-23T18:29:23.631Z,64.40
2019-03-23T18:31:53.985Z,62.40
2019-03-23T18:34:24.392Z,65.80
2019-03-23T18:36:55.566Z,64.50
2019-03-23T18:39:25.996Z,62.20
2019-03-23T18:41:56.413Z,62.40
2019-03-23T18:44:26.836Z,63.70
2019-03-23T18:46:57.178Z,63.60
2019-03-23T18:49:27.592Z,58.20
2019-03-23T18:51:57.951Z,57.80
2019-03-23T18:54:28.519Z,56.10
2019-03-23T18:56:59.579Z,54.70
2019-03-23T18:59:31.192Z,62.10
2019-03-23T19:02:01.563Z,58.50
2019-03-23T19:04:31.963Z,57.60
2019-03-23T19:07:02.356Z,53.90
2019-03-23T19:09:32.783Z,53.10
2019-03-23T19:12:03.205Z,52.80
2019-03-23T19:14:34.714Z,51.60
2019-03-23T19:17:05.232Z,51.40
2019-03-23T19:19:35.642Z,51.20
2019-03-23T19:22:06.059Z,59.40
2019-03-23T19:24:36.450Z,60.40
2019-03-23T19:27:06.858Z,61.20
2019-03-23T19:29:37.289Z,59.40
2019-03-23T19:32:07.709Z,58.90
2019-03-23T19:34:38.124Z,60.00
2019-03-23T19:37:08.564Z,62.40
2019-03-23T19:39:38.959Z,61.10
2019-03-23T19:42:09.314Z,57.90
2019-03-23T19:44:39.742Z,61.00
2019-03-23T19:47:10.098Z,64.70
2019-03-23T19:49:40.508Z,63.20
2019-03-23T19:52:10.854Z,59.90
2019-03-23T19:54:41.274Z,59.80
2019-03-23T19:57:11.693Z,57.50
2019-03-23T19:59:42.090Z,59.30
2019-03-23T20:02:12.507Z,62.90
2019-03-23T20:04:42.915Z,63.40
2019-03-23T20:07:13.307Z,63.00
2019-03-23T20:09:43.717Z,66.20
2019-03-23T20:12:15.666Z,62.80
2019-03-23T20:14:46.072Z,60.80
2019-03-23T20:17:16.459Z,65.80
2019-03-23T20:19:46.873Z,63.50
2019-03-23T20:22:17.235Z,60.20
2019-03-23T20:24:47.931Z,58.50
2019-03-23T20:27:18.288Z,57.70
2019-03-23T20:29:49.067Z,57.60
2019-03-23T20:32:19.434Z,58.90
2019-03-23T20:34:49.962Z,59.50
2019-03-23T20:37:20.580Z,60.90
2019-03-23T20:39:50.987Z,64.00
2019-03-23T20:42:21.352Z,66.60
2019-03-23T20:44:51.769Z,69.00
2019-03-23T20:47:22.387Z,70.90
2019-03-23T20:49:53.843Z,71.40
2019-03-23T20:52:24.265Z,72.10
2019-03-23T20:54:54.722Z,69.40
2019-03-23T20:57:25.412Z,73.20
2019-03-23T20:59:55.767Z,70.00
2019-03-23T21:02:26.186Z,73.60
2019-03-23T21:04:56.540Z,74.30
2019-03-23T21:07:26.972Z,76.10
2019-03-23T21:09:57.332Z,72.20
2019-03-23T21:12:27.741Z,71.70
2019-03-23T21:14:58.090Z,74.70
2019-03-23T21:17:28.520Z,74.50
2019-03-23T21:19:58.882Z,75.50
2019-03-23T21:22:29.312Z,76.30
2019-03-23T21:24:59.660Z,77.40
2019-03-23T21:27:30.068Z,78.10
2019-03-23T21:30:00.448Z,77.30
2019-03-23T21:32:30.836Z,76.80
2019-03-23T21:35:01.191Z,74.80
2019-03-23T21:37:31.621Z,75.30
2019-03-23T21:40:02.061Z,68.50
2019-03-23T21:42:33.484Z,69.50
2019-03-23T21:45:05.127Z,72.70
2019-03-23T21:47:35.541Z,75.30
2019-03-23T21:50:09.561Z,76.60
2019-03-23T21:52:39.964Z,76.00
2019-03-23T21:55:10.568Z,73.20
2019-03-23T21:57:41.046Z,73.10
2019-03-23T22:00:12.270Z,75.80
2019-03-23T22:02:42.694Z,75.50
2019-03-23T22:05:13.190Z,77.20
2019-03-23T22:07:43.596Z,75.10
2019-03-23T22:10:14.101Z,71.10
2019-03-23T22:12:44.509Z,68.30
2019-03-23T22:15:15.130Z,65.90
2019-03-23T22:17:45.549Z,64.80
2019-03-23T22:20:15.966Z,62.80
2019-03-23T22:22:46.417Z,62.20
2019-03-23T22:25:16.812Z,61.80
2019-03-23T22:27:47.313Z,61.60
2019-03-23T22:30:18.923Z,61.40
2019-03-23T22:32:49.503Z,61.70
2019-03-23T22:35:20.003Z,64.70
2019-03-23T22:37:50.417Z,62.30
2019-03-23T22:40:20.823Z,62.00
2019-03-23T22:42:51.251Z,64.20
2019-03-23T22:45:21.665Z,69.00
2019-03-23T22:47:52.011Z,72.10
2019-03-23T22:50:22.445Z,72.60
2019-03-23T22:52:53.003Z,75.20
2019-03-23T22:55:23.772Z,77.10
2019-03-23T22:57:54.118Z,78.60
2019-03-23T23:00:42.723Z,77.80
2019-03-23T23:03:13.268Z,77.10
2019-03-23T23:05:43.783Z,75.80
2019-03-23T23:08:14.200Z,78.00
2019-03-23T23:10:44.720Z,77.10
2019-03-23T23:13:16.239Z,76.90
2019-03-23T23:15:46.651Z,76.00
2019-03-23T23:18:17.064Z,75.90
2019-03-23T23:20:47.481Z,70.80
2019-03-23T23:23:18.105Z,67.20
2019-03-23T23:25:48.629Z,66.40
2019-03-23T23:28:19.052Z,64.70
2019-03-23T23:30:50.864Z,68.90
2019-03-23T23:33:21.207Z,72.60
2019-03-23T23:35:51.787Z,73.10
2019-03-23T23:38:22.140Z,74.10
2019-03-23T23:40:52.555Z,74.20
2019-03-23T23:43:22.915Z,76.10
2019-03-23T23:45:53.333Z,78.00
2019-03-23T23:48:23.676Z,79.00
2019-03-23T23:50:54.083Z,81.10
2019-03-23T23:53:24.427Z,80.40
2019-03-23T23:55:55.108Z,81.20
2019-03-23T23:58:25.465Z,79.90
